Amsterdam, Netherlands

9:57 AM CEST on 四月 23, 2017 (GMT +0200)
Schiphol | | Change Station

高度 7 ft 52.30 °N, 4.77 °E | Updated 32 minutes ago

Rain Showers
にわか雨
45 °F
体感気温 40 °F
9
風 変数 風 から 北西

今日
高い -- | 低 -- °F
--% 降水確率
昨日
高い -- | 低 -- °F
Precip. -- インチ
気圧 30.30 インチ
視程 3.7 マイル
わずか 1800 ft
やや曇 2500 ft
体感気温(寒さ) 40 °F
露点温度 37 °F
湿度 76%
降水 0.00 インチ
積雪深 利用不可。
6:26 AM 8:53 PM
二十六夜, 13% visible
METAR EHAM 230725Z 32008KT 280V360 6000 SHRA FEW018 SCT025CB 07/03 Q1026 TEMPO 9999 NSW
気圧 30.30 インチ
視程 3.7 マイル
わずか 1800 ft
やや曇 2500 ft
体感気温(寒さ) 40 °F
露点温度 37 °F
湿度 76%
降水 0.00 インチ
積雪深 利用不可。
6:26 AM 8:53 PM
二十六夜, 13% visible
METAR EHAM 230725Z 32008KT 280V360 6000 SHRA FEW018 SCT025CB 07/03 Q1026 TEMPO 9999 NSW

Get Severe Weather Alerts

Thanks for signing up!

Be on the lookout for a verification email in your inbox.

You'll start receiving the daily forecast at 8 AM.

×

10-Day Weather Forecast

×

Almanac

天文

Apr. 23, 2017 入り
実時間
常用薄明
航海薄明
天文薄明
可視光の長さ
可照時間
Tomorrow will be .
, % of the Moon is Illuminated

今日の極値

Country Highs Country Lows

Community

WunderBlog® & News

Nearby

空気品質

  空気品質 大気質指数 汚染物質
Not available.

積雪深

Station Depth 高度

地震活動

Distance Mag. Time & Date
Minimum magnitude displayed is 2.5.

沿岸の水温

地名 気温

Stations

最寄りの気象観測所

観測所位置 温度 体感気温(寒さ) 露点温度 湿度 Precip. 高度 更新日時 タイプする